KFNB

Brenner Field Airport

Falls City, Nebraska, USA
METAR KFNB 182253Z AUTO 08004KT 10SM CLR 30/19 A2996 RMK AO2 SLP136 T03000194
Observed Flight Rules
Aug-18 @ 22:53 UTC (54 minutes ago) Visual Flight Rules
Wind Visibility Clouds
80° at 4 knots 10 miles
  • Clear skies
Temperatures Readings
Current 30°C / 86°F
Dewpoint 19°C / 66°F
Humidity 52%
Altimeter 29.96" Hg
Pressure 1013.6 hPa
Elevation 300
METAR KFNB 182253Z AUTO 08004KT 10SM CLR 30/19 A2996 RMK AO2 SLP136 T03000194
Observed Flight Rules
Aug-18 @ 22:53 UTC
(54 minutes ago)
VFR
Wind Visibility
80° at 4 knots 10 miles
Clouds
  • Clear skies
Temperature Dewpoint
30°C / 86°F 19°C / 66°F
Humidity Altimeter Pressure
52% 29.96" Hg 1013.6 hPa